Terminal Aerodrome Forecast
Issued by NWS Omaha/Valley, NE

Home | Current Version | Previous Version | Graphics & Text | Print | Product List | Glossary On
Versions: 1 2 3 4 5 6 7 8 9 10 11 12 13 14 15 16 17 18 19 20 21 22 23 24 25 26 27 28 29 30 31
000
FTUS43 KOAX 031121
TAFOFK
TAF
KOFK 031121Z 0312/0412 19010KT 4SM BR OVC012
      TEMPO 0312/0314 21010KT 2SM -FZDZ BR BKN009
     FM031400 33012G20KT P6SM OVC025
      TEMPO 0314/0316 5SM -SN BKN015
     FM031900 34024G34KT P6SM BKN035
     FM040300 34011KT P6SM SCT040 BKN150=

USA.gov is the U.S. government's official web portal to all federal, state and local government web resources and services.